createdAt,value
2022-10-24T00:00:00.371Z,14.90
2022-10-24T00:02:27.459Z,15.00
2022-10-24T00:04:54.258Z,15.00
2022-10-24T00:07:20.998Z,14.90
2022-10-24T00:09:47.707Z,14.90
2022-10-24T00:12:14.659Z,14.90
2022-10-24T00:14:42.773Z,14.90
2022-10-24T00:17:09.535Z,14.90
2022-10-24T00:19:36.288Z,14.90
2022-10-24T00:22:03.199Z,14.90
2022-10-24T00:24:30.054Z,14.90
2022-10-24T00:26:56.910Z,14.90
2022-10-24T00:29:23.775Z,14.90
2022-10-24T00:31:51.854Z,14.90
2022-10-24T00:34:18.686Z,14.90
2022-10-24T00:36:45.429Z,14.90
2022-10-24T00:39:13.216Z,14.90
2022-10-24T00:41:42.715Z,14.90
2022-10-24T00:44:19.332Z,14.90
2022-10-24T00:46:49.885Z,14.90
2022-10-24T00:49:21.076Z,14.90
2022-10-24T00:51:53.033Z,14.90
2022-10-24T00:54:20.441Z,14.90
2022-10-24T00:57:00.062Z,14.90
2022-10-24T00:59:28.433Z,14.90
2022-10-24T01:01:55.296Z,14.90
2022-10-24T01:04:23.394Z,14.90
2022-10-24T01:07:01.458Z,14.90
2022-10-24T01:09:51.969Z,14.90
2022-10-24T01:12:30.950Z,14.90
2022-10-24T01:15:06.426Z,14.90
2022-10-24T01:17:39.733Z,14.90
2022-10-24T01:20:33.621Z,14.90
2022-10-24T01:23:16.630Z,14.90
2022-10-24T01:25:53.438Z,14.90
2022-10-24T01:28:24.553Z,14.90
2022-10-24T01:30:59.333Z,14.90
2022-10-24T01:33:31.073Z,14.90
2022-10-24T01:36:03.178Z,14.80
2022-10-24T01:38:35.573Z,14.80
2022-10-24T01:41:06.532Z,14.90
2022-10-24T01:43:36.879Z,14.80
2022-10-24T01:46:10.892Z,14.80
2022-10-24T01:48:42.668Z,14.80
2022-10-24T01:51:12.353Z,14.80
2022-10-24T01:53:39.894Z,14.80
2022-10-24T01:56:07.130Z,14.80
2022-10-24T01:58:33.881Z,14.80
2022-10-24T02:01:07.975Z,14.80
2022-10-24T02:03:36.212Z,14.80
2022-10-24T02:06:07.657Z,14.80
2022-10-24T02:08:38.748Z,14.80
2022-10-24T02:11:07.451Z,14.80
2022-10-24T02:13:41.078Z,14.80
2022-10-24T02:16:09.727Z,14.80
2022-10-24T02:18:37.053Z,14.80
2022-10-24T02:21:11.137Z,14.80
2022-10-24T02:23:42.629Z,14.80
2022-10-24T02:26:14.606Z,14.80
2022-10-24T02:28:45.276Z,14.80
2022-10-24T02:31:17.935Z,14.70
2022-10-24T02:33:45.784Z,14.80
2022-10-24T02:36:15.666Z,14.80
2022-10-24T02:38:44.995Z,14.80
2022-10-24T02:41:19.401Z,14.80
2022-10-24T02:43:49.537Z,14.70
2022-10-24T02:46:20.074Z,14.80
2022-10-24T02:48:51.270Z,14.80
2022-10-24T02:51:20.340Z,14.80
2022-10-24T02:53:47.173Z,14.80
2022-10-24T02:56:14.169Z,14.80
2022-10-24T02:58:41.143Z,14.80
2022-10-24T03:01:08.020Z,14.80
2022-10-24T03:03:36.214Z,14.80
2022-10-24T03:06:03.118Z,14.80
2022-10-24T03:08:29.949Z,14.80
2022-10-24T03:10:56.925Z,14.80
2022-10-24T03:13:23.652Z,14.70
2022-10-24T03:15:50.389Z,14.70
2022-10-24T03:18:17.147Z,14.70
2022-10-24T03:20:45.218Z,14.70
2022-10-24T03:23:12.102Z,14.80
2022-10-24T03:25:38.859Z,14.70
2022-10-24T03:28:05.799Z,14.80
2022-10-24T03:30:32.677Z,14.80
2022-10-24T03:32:59.463Z,14.70
2022-10-24T03:35:26.212Z,14.70
2022-10-24T03:37:54.301Z,14.80
2022-10-24T03:40:21.084Z,14.80
2022-10-24T03:42:48.100Z,14.80
2022-10-24T03:45:15.100Z,14.70
2022-10-24T03:47:41.842Z,14.80
2022-10-24T03:50:09.041Z,14.80
2022-10-24T03:52:35.779Z,14.80
2022-10-24T03:55:04.303Z,14.80
2022-10-24T03:57:31.074Z,14.80
2022-10-24T03:59:57.896Z,14.70
2022-10-24T04:02:24.697Z,14.80
2022-10-24T04:04:51.442Z,14.80
2022-10-24T04:07:18.314Z,14.80
2022-10-24T04:09:45.093Z,14.80
2022-10-24T04:12:13.253Z,14.80
2022-10-24T04:14:40.024Z,14.70
2022-10-24T04:17:06.758Z,14.80
2022-10-24T04:19:33.693Z,14.80
2022-10-24T04:22:00.540Z,14.80
2022-10-24T04:24:27.293Z,14.80
2022-10-24T04:26:54.046Z,14.80
2022-10-24T04:29:22.436Z,14.80
2022-10-24T04:31:49.207Z,14.70
2022-10-24T04:34:16.003Z,14.80
2022-10-24T04:36:42.790Z,14.70
2022-10-24T04:39:09.577Z,14.80
2022-10-24T04:41:36.321Z,14.80
2022-10-24T04:44:03.302Z,14.80
2022-10-24T04:46:32.166Z,14.80
2022-10-24T04:48:58.888Z,14.80
2022-10-24T04:51:25.723Z,14.80
2022-10-24T04:53:52.548Z,14.80
2022-10-24T04:56:19.669Z,14.80
2022-10-24T04:58:46.449Z,14.70
2022-10-24T05:01:13.249Z,14.80
2022-10-24T05:03:41.369Z,14.80
2022-10-24T05:06:08.161Z,14.80
2022-10-24T05:08:34.912Z,14.80
2022-10-24T05:11:01.772Z,14.80
2022-10-24T05:13:31.687Z,14.70
2022-10-24T05:16:01.262Z,14.80
2022-10-24T05:18:28.119Z,14.80
2022-10-24T05:20:57.502Z,14.80
2022-10-24T05:23:24.593Z,14.80
2022-10-24T05:25:51.378Z,14.80
2022-10-24T05:28:18.249Z,14.70
2022-10-24T05:30:45.309Z,14.80
2022-10-24T05:33:12.583Z,14.70
2022-10-24T05:35:39.398Z,14.80
2022-10-24T05:38:07.704Z,14.80
2022-10-24T05:40:34.564Z,14.80
2022-10-24T05:43:01.292Z,14.80
2022-10-24T05:45:28.031Z,14.80
2022-10-24T05:47:54.785Z,14.80
2022-10-24T05:50:21.493Z,14.70
2022-10-24T05:52:48.658Z,14.80
2022-10-24T05:55:18.066Z,14.80
2022-10-24T05:57:46.002Z,14.80
2022-10-24T06:00:15.521Z,14.80
2022-10-24T06:02:42.874Z,14.80
2022-10-24T06:05:11.173Z,14.80
2022-10-24T06:07:38.231Z,14.80
2022-10-24T06:10:07.632Z,14.70
2022-10-24T06:12:35.749Z,14.80
2022-10-24T06:15:04.885Z,14.80
2022-10-24T06:17:31.601Z,14.80
2022-10-24T06:19:58.372Z,14.80
2022-10-24T06:22:25.422Z,14.70
2022-10-24T06:24:52.157Z,14.80
2022-10-24T06:27:19.436Z,14.70
2022-10-24T06:29:47.574Z,14.70
2022-10-24T06:32:14.344Z,14.70
2022-10-24T06:34:41.091Z,14.70
2022-10-24T06:37:07.834Z,14.70
2022-10-24T06:39:34.599Z,14.70
2022-10-24T06:42:01.660Z,14.70
2022-10-24T06:44:28.513Z,14.80
2022-10-24T06:46:56.717Z,14.70
2022-10-24T06:49:23.453Z,14.70
2022-10-24T06:51:50.174Z,14.70
2022-10-24T06:54:17.121Z,14.70
2022-10-24T06:56:43.914Z,14.70
2022-10-24T06:59:11.238Z,14.70
2022-10-24T07:01:38.111Z,14.70
2022-10-24T07:04:06.333Z,14.70
2022-10-24T07:06:33.679Z,14.70
2022-10-24T07:09:02.292Z,14.70
2022-10-24T07:11:29.277Z,14.70
2022-10-24T07:13:59.623Z,14.70
2022-10-24T07:16:29.101Z,14.70
2022-10-24T07:18:56.354Z,14.80
2022-10-24T07:21:27.041Z,14.80
2022-10-24T07:23:55.217Z,14.80
2022-10-24T07:26:24.226Z,14.80
2022-10-24T07:28:53.536Z,14.80
2022-10-24T07:31:22.641Z,14.80
2022-10-24T07:33:49.572Z,14.80
2022-10-24T07:36:16.884Z,14.80
2022-10-24T07:38:45.010Z,14.80
2022-10-24T07:41:11.846Z,14.80
2022-10-24T07:43:38.728Z,14.80
2022-10-24T07:46:07.159Z,14.80
2022-10-24T07:48:34.084Z,14.80
2022-10-24T07:51:04.991Z,14.80
2022-10-24T07:53:31.726Z,14.80
2022-10-24T07:56:00.074Z,14.80
2022-10-24T07:58:27.309Z,14.80
2022-10-24T08:00:54.147Z,14.80
2022-10-24T08:03:20.906Z,14.80
2022-10-24T08:05:47.833Z,14.80
2022-10-24T08:11:07.371Z,14.80
2022-10-24T08:13:34.139Z,14.80
2022-10-24T08:16:01.066Z,14.80
2022-10-24T08:18:30.261Z,14.80
2022-10-24T08:20:58.381Z,14.80
2022-10-24T08:23:25.665Z,14.80
2022-10-24T08:25:52.670Z,14.80
2022-10-24T08:28:20.911Z,14.80
2022-10-24T08:30:55.665Z,14.80
2022-10-24T08:33:22.486Z,14.80
2022-10-24T08:35:49.250Z,14.80
2022-10-24T08:38:16.022Z,14.80
2022-10-24T08:40:42.765Z,14.80
2022-10-24T08:43:11.387Z,14.80
2022-10-24T08:45:49.862Z,14.80
2022-10-24T08:48:22.201Z,14.90
2022-10-24T08:50:53.351Z,14.90
2022-10-24T08:53:24.763Z,14.90
2022-10-24T08:55:53.697Z,14.80
2022-10-24T08:58:24.758Z,14.90
2022-10-24T09:00:54.929Z,14.80
2022-10-24T09:03:43.925Z,14.90
2022-10-24T09:06:19.102Z,14.90
2022-10-24T09:08:51.607Z,14.80
2022-10-24T09:11:26.358Z,14.90
2022-10-24T09:13:54.419Z,14.90
2022-10-24T09:16:24.342Z,14.80
2022-10-24T09:18:53.984Z,14.80
2022-10-24T09:21:21.780Z,14.90
2022-10-24T09:23:50.399Z,14.90
2022-10-24T09:26:23.910Z,14.90
2022-10-24T09:28:50.705Z,14.90
2022-10-24T09:31:20.942Z,14.90
2022-10-24T09:33:50.366Z,14.90
2022-10-24T09:36:19.914Z,14.90
2022-10-24T09:38:48.010Z,14.90
2022-10-24T09:41:22.421Z,14.90
2022-10-24T09:43:51.930Z,14.90
2022-10-24T09:46:20.837Z,14.90
2022-10-24T09:48:55.002Z,14.90
2022-10-24T09:51:24.574Z,14.90
2022-10-24T09:54:04.745Z,14.90
2022-10-24T09:56:37.547Z,14.90
2022-10-24T09:59:26.177Z,14.90
2022-10-24T10:01:53.360Z,14.90
2022-10-24T10:04:21.593Z,14.90
2022-10-24T10:06:50.133Z,14.90
2022-10-24T10:09:25.547Z,14.90
2022-10-24T10:12:02.541Z,14.90
2022-10-24T10:14:30.106Z,14.90
2022-10-24T10:17:02.034Z,14.90
2022-10-24T10:19:36.500Z,14.90
2022-10-24T10:22:04.693Z,14.90
2022-10-24T10:24:38.861Z,14.90
2022-10-24T10:27:20.304Z,14.90
2022-10-24T10:29:47.044Z,14.90
2022-10-24T10:32:19.400Z,14.90
2022-10-24T10:34:53.919Z,14.90
2022-10-24T10:37:27.059Z,14.90
2022-10-24T10:40:18.422Z,14.90
2022-10-24T10:42:55.451Z,14.90
2022-10-24T10:45:35.222Z,14.90
2022-10-24T10:48:24.697Z,14.90
2022-10-24T10:51:02.227Z,14.90
2022-10-24T10:53:38.978Z,14.90
2022-10-24T10:56:20.045Z,14.90
2022-10-24T10:58:55.713Z,14.90
2022-10-24T11:01:33.081Z,15.00
2022-10-24T11:04:05.354Z,15.00
2022-10-24T11:06:42.291Z,14.90
2022-10-24T11:09:29.389Z,15.00
2022-10-24T11:12:04.114Z,15.00
2022-10-24T11:14:33.831Z,15.00
2022-10-24T11:17:06.639Z,15.00
2022-10-24T11:19:42.577Z,15.00
2022-10-24T11:22:19.105Z,15.00
2022-10-24T11:24:53.324Z,15.00
2022-10-24T11:27:23.857Z,15.00
2022-10-24T11:29:55.391Z,15.00
2022-10-24T11:32:27.786Z,15.00
2022-10-24T11:34:58.858Z,15.00
2022-10-24T11:37:31.577Z,15.00
2022-10-24T11:40:02.771Z,15.00
2022-10-24T11:42:36.408Z,15.00
2022-10-24T11:45:06.447Z,15.00
2022-10-24T11:47:49.471Z,15.00
2022-10-24T11:50:25.515Z,15.00
2022-10-24T11:52:58.540Z,14.90
2022-10-24T11:55:28.301Z,14.90
2022-10-24T11:57:58.415Z,15.00
2022-10-24T12:00:30.837Z,15.00
2022-10-24T12:03:28.700Z,14.90
2022-10-24T12:06:10.361Z,14.90
2022-10-24T12:08:58.457Z,15.00
2022-10-24T12:11:48.930Z,15.00
2022-10-24T12:14:34.410Z,14.90
2022-10-24T12:17:19.912Z,15.00
2022-10-24T12:19:47.381Z,14.90
2022-10-24T12:22:17.910Z,14.90
2022-10-24T12:24:46.097Z,14.90
2022-10-24T12:27:26.428Z,14.90
2022-10-24T12:30:01.859Z,14.90
2022-10-24T12:32:37.012Z,14.90
2022-10-24T12:35:30.314Z,14.90
2022-10-24T12:37:58.232Z,14.90
2022-10-24T12:40:49.962Z,14.90
2022-10-24T12:43:28.377Z,14.90
2022-10-24T12:45:55.325Z,14.90
2022-10-24T12:48:32.152Z,14.90
2022-10-24T12:51:04.968Z,14.90
2022-10-24T12:53:59.209Z,14.90
2022-10-24T12:56:27.746Z,14.90
2022-10-24T12:59:00.702Z,14.90
2022-10-24T13:01:31.390Z,14.90
2022-10-24T13:04:28.381Z,14.90
2022-10-24T13:07:30.756Z,14.90
2022-10-24T13:10:17.326Z,14.90
2022-10-24T13:13:12.800Z,14.90
2022-10-24T13:15:48.049Z,14.90
2022-10-24T13:18:34.536Z,14.80
2022-10-24T13:21:16.923Z,14.90
2022-10-24T13:23:45.629Z,14.90
2022-10-24T13:26:35.968Z,14.80
2022-10-24T13:29:04.539Z,14.90
2022-10-24T13:32:18.653Z,14.80
2022-10-24T13:34:55.382Z,14.80
2022-10-24T13:37:25.194Z,14.80
2022-10-24T13:39:55.558Z,14.80
2022-10-24T13:42:34.995Z,14.80
2022-10-24T13:45:18.371Z,14.80
2022-10-24T13:47:50.670Z,14.80
2022-10-24T13:50:21.004Z,14.80
2022-10-24T13:52:50.422Z,14.80
2022-10-24T13:55:23.494Z,14.70
2022-10-24T13:57:53.878Z,14.70
2022-10-24T14:00:25.167Z,14.80
2022-10-24T14:02:52.592Z,14.80
2022-10-24T14:05:25.974Z,14.70
2022-10-24T14:07:52.853Z,14.80
2022-10-24T14:10:21.351Z,14.80
2022-10-24T14:12:48.665Z,14.70
2022-10-24T14:15:18.507Z,14.80
2022-10-24T14:17:56.658Z,14.80
2022-10-24T14:20:25.417Z,14.80
2022-10-24T14:22:52.260Z,14.80
2022-10-24T14:25:25.003Z,14.80
2022-10-24T14:27:52.878Z,14.80
2022-10-24T14:30:22.437Z,14.80
2022-10-24T14:32:49.604Z,14.70
2022-10-24T14:35:17.866Z,14.70
2022-10-24T14:37:45.053Z,14.70
2022-10-24T14:40:16.610Z,14.80
2022-10-24T14:42:44.972Z,14.70
2022-10-24T14:45:22.682Z,14.70
2022-10-24T14:47:52.384Z,14.80
2022-10-24T14:50:39.255Z,14.80
2022-10-24T14:53:06.599Z,14.70
2022-10-24T14:55:33.700Z,14.80
2022-10-24T14:58:00.626Z,14.70
2022-10-24T15:00:39.513Z,14.80
2022-10-24T15:03:06.532Z,14.80
2022-10-24T15:05:41.732Z,14.70
2022-10-24T15:08:27.902Z,14.80
2022-10-24T15:11:18.478Z,14.70
2022-10-24T15:13:48.260Z,14.70
2022-10-24T15:16:31.005Z,14.70
2022-10-24T15:18:58.319Z,14.70
2022-10-24T15:21:32.724Z,14.70
2022-10-24T15:24:00.578Z,14.70
2022-10-24T15:26:30.426Z,14.70
2022-10-24T15:29:07.030Z,14.70
2022-10-24T15:31:37.318Z,14.70
2022-10-24T15:34:04.417Z,14.70
2022-10-24T15:36:35.579Z,14.70
2022-10-24T15:39:04.384Z,14.70
2022-10-24T15:41:31.723Z,14.70
2022-10-24T15:43:58.549Z,14.70
2022-10-24T15:46:25.457Z,14.70
2022-10-24T15:48:52.251Z,14.70
2022-10-24T15:51:22.890Z,14.70
2022-10-24T15:53:51.689Z,14.70
2022-10-24T15:56:18.398Z,14.70
2022-10-24T15:58:45.150Z,14.70
2022-10-24T16:01:23.529Z,14.70
2022-10-24T16:03:50.381Z,14.70
2022-10-24T16:06:17.154Z,14.60
2022-10-24T16:08:43.934Z,14.60
2022-10-24T16:11:12.430Z,14.60
2022-10-24T16:13:40.661Z,14.60
2022-10-24T16:16:08.080Z,14.60
2022-10-24T16:18:35.011Z,14.60
2022-10-24T16:21:01.774Z,14.60
2022-10-24T16:23:28.613Z,14.60
2022-10-24T16:25:55.340Z,14.60
2022-10-24T16:28:23.921Z,14.60
2022-10-24T16:30:50.857Z,14.60
2022-10-24T16:33:17.725Z,14.60
2022-10-24T16:35:44.462Z,14.60
2022-10-24T16:38:11.788Z,14.60
2022-10-24T16:43:13.394Z,14.60
2022-10-24T16:45:41.509Z,14.60
2022-10-24T16:48:08.764Z,14.50
2022-10-24T16:50:35.818Z,14.50
2022-10-24T16:53:05.243Z,14.50
2022-10-24T16:55:32.746Z,14.50
2022-10-24T16:57:59.753Z,14.50
2022-10-24T17:00:27.267Z,14.50
2022-10-24T17:02:56.075Z,14.50
2022-10-24T17:05:25.103Z,14.50
2022-10-24T17:07:52.473Z,14.50
2022-10-24T17:10:22.151Z,14.40
2022-10-24T17:12:51.633Z,14.40
2022-10-24T17:15:22.072Z,14.50
2022-10-24T17:17:49.822Z,14.40
2022-10-24T17:20:18.340Z,14.40
2022-10-24T17:22:46.206Z,14.40
2022-10-24T17:25:19.561Z,14.40
2022-10-24T17:27:47.195Z,14.40
2022-10-24T17:30:17.015Z,14.40
2022-10-24T17:32:44.281Z,14.40
2022-10-24T17:35:13.955Z,14.40
2022-10-24T17:38:01.199Z,14.40
2022-10-24T17:40:31.491Z,14.40
2022-10-24T17:42:58.802Z,14.30
2022-10-24T17:45:25.833Z,14.30
2022-10-24T17:47:52.731Z,14.30
2022-10-24T17:50:19.482Z,14.30
2022-10-24T17:52:47.864Z,14.30
2022-10-24T17:55:40.944Z,14.30
2022-10-24T17:58:05.634Z,14.30
2022-10-24T18:00:33.107Z,14.30
2022-10-24T18:02:59.999Z,14.30
2022-10-24T18:05:27.694Z,14.30
2022-10-24T18:07:55.829Z,14.30
2022-10-24T18:10:22.605Z,14.30
2022-10-24T18:12:50.119Z,14.30
2022-10-24T18:15:18.134Z,14.30
2022-10-24T18:17:45.565Z,14.30
2022-10-24T18:20:12.997Z,14.30
2022-10-24T18:22:39.721Z,14.30
2022-10-24T18:25:09.406Z,14.20
2022-10-24T18:27:36.549Z,14.30
2022-10-24T18:30:05.241Z,14.30
2022-10-24T18:32:32.062Z,14.20
2022-10-24T18:34:58.813Z,14.20
2022-10-24T18:37:25.766Z,14.20
2022-10-24T18:39:53.077Z,14.20
2022-10-24T18:42:26.236Z,14.20
2022-10-24T18:44:54.030Z,14.20
2022-10-24T18:47:24.692Z,14.20
2022-10-24T18:49:53.270Z,14.20
2022-10-24T18:52:33.061Z,14.20
2022-10-24T18:55:04.088Z,14.20
2022-10-24T18:57:33.792Z,14.20
2022-10-24T19:00:00.926Z,14.20
2022-10-24T19:02:33.929Z,14.20
2022-10-24T19:05:17.812Z,14.20
2022-10-24T19:07:46.471Z,14.20
2022-10-24T19:10:19.476Z,14.20
2022-10-24T19:12:48.394Z,14.20
2022-10-24T19:15:15.840Z,14.10
2022-10-24T19:17:43.201Z,14.20
2022-10-24T19:20:18.802Z,14.10
2022-10-24T19:22:46.035Z,14.10
2022-10-24T19:25:14.061Z,14.10
2022-10-24T19:27:41.254Z,14.10
2022-10-24T19:30:11.609Z,14.00
2022-10-24T19:32:38.613Z,14.10
2022-10-24T19:35:06.150Z,14.00
2022-10-24T19:37:32.920Z,14.00
2022-10-24T19:39:59.669Z,14.00
2022-10-24T19:42:26.398Z,14.00
2022-10-24T19:44:53.136Z,14.00
2022-10-24T19:47:21.411Z,14.00
2022-10-24T19:49:48.310Z,14.00
2022-10-24T19:52:15.093Z,14.00
2022-10-24T19:54:41.841Z,14.00
2022-10-24T19:57:08.562Z,14.00
2022-10-24T19:59:35.298Z,14.00
2022-10-24T20:02:02.140Z,14.00
2022-10-24T20:04:30.919Z,14.00
2022-10-24T20:06:57.642Z,14.00
2022-10-24T20:09:24.374Z,14.00
2022-10-24T20:11:51.120Z,14.00
2022-10-24T20:14:18.049Z,14.00
2022-10-24T20:16:44.777Z,13.90
2022-10-24T20:19:11.574Z,13.90
2022-10-24T20:21:39.698Z,13.90
2022-10-24T20:24:07.207Z,13.90
2022-10-24T20:26:34.014Z,13.90
2022-10-24T20:29:01.064Z,13.80
2022-10-24T20:31:29.910Z,13.90
2022-10-24T20:34:00.119Z,13.90
2022-10-24T20:36:31.031Z,13.80
2022-10-24T20:38:59.249Z,13.70
2022-10-24T20:41:26.083Z,13.70
2022-10-24T20:43:53.382Z,13.70
2022-10-24T20:46:20.233Z,13.70
2022-10-24T20:48:46.972Z,13.70
2022-10-24T20:51:15.507Z,13.70
2022-10-24T20:53:42.934Z,13.70
2022-10-24T20:56:12.789Z,13.50
2022-10-24T20:58:40.721Z,13.50
2022-10-24T21:01:08.771Z,13.50
2022-10-24T21:03:36.492Z,13.50
2022-10-24T21:06:04.399Z,13.50
2022-10-24T21:08:31.107Z,13.50
2022-10-24T21:10:57.846Z,13.50
2022-10-24T21:13:25.959Z,13.50
2022-10-24T21:15:56.208Z,13.50
2022-10-24T21:18:22.997Z,13.40
2022-10-24T21:20:49.713Z,13.50
2022-10-24T21:23:16.471Z,13.50
2022-10-24T21:25:43.203Z,13.50
2022-10-24T21:28:10.086Z,13.40
2022-10-24T21:30:38.156Z,13.40
2022-10-24T21:33:05.003Z,13.40
2022-10-24T21:35:31.747Z,13.50
2022-10-24T21:37:58.464Z,13.50
2022-10-24T21:40:25.228Z,13.40
2022-10-24T21:42:51.945Z,13.50
2022-10-24T21:45:18.882Z,13.40
2022-10-24T21:47:46.949Z,13.40
2022-10-24T21:50:13.688Z,13.50
2022-10-24T21:52:40.445Z,13.50
2022-10-24T21:55:07.845Z,13.40
2022-10-24T21:57:34.592Z,13.50
2022-10-24T22:00:01.443Z,13.50
2022-10-24T22:02:28.299Z,13.50
2022-10-24T22:04:56.524Z,13.50
2022-10-24T22:07:24.580Z,13.50
2022-10-24T22:09:51.293Z,13.50
2022-10-24T22:12:18.019Z,13.50
2022-10-24T22:14:44.771Z,13.40
2022-10-24T22:17:11.492Z,13.30
2022-10-24T22:19:38.201Z,13.30
2022-10-24T22:22:06.294Z,13.30
2022-10-24T22:24:33.042Z,13.30
2022-10-24T22:26:59.760Z,13.30
2022-10-24T22:29:26.611Z,13.30
2022-10-24T22:31:54.050Z,13.30
2022-10-24T22:34:22.770Z,13.20
2022-10-24T22:37:01.162Z,13.30
2022-10-24T22:39:29.978Z,13.30
2022-10-24T22:41:57.224Z,13.30
2022-10-24T22:44:24.734Z,13.30
2022-10-24T22:47:12.059Z,13.20
2022-10-24T22:49:49.126Z,13.30
2022-10-24T22:52:16.367Z,13.30
2022-10-24T22:54:45.192Z,13.20
2022-10-24T22:57:12.496Z,13.20
2022-10-24T22:59:39.737Z,13.20
2022-10-24T23:02:17.142Z,13.20
2022-10-24T23:04:52.483Z,13.20
2022-10-24T23:07:27.445Z,13.30
2022-10-24T23:09:56.030Z,13.30
2022-10-24T23:12:23.665Z,13.30
2022-10-24T23:14:51.443Z,13.30
2022-10-24T23:17:23.277Z,13.30
2022-10-24T23:19:51.040Z,13.40
2022-10-24T23:22:23.096Z,13.30
2022-10-24T23:24:51.061Z,13.30
2022-10-24T23:27:30.488Z,13.30
2022-10-24T23:29:57.870Z,13.30
2022-10-24T23:32:27.366Z,13.30
2022-10-24T23:34:55.330Z,13.30
2022-10-24T23:37:30.063Z,13.30
2022-10-24T23:39:57.323Z,13.30
2022-10-24T23:42:26.068Z,13.30
2022-10-24T23:44:53.444Z,13.20
2022-10-24T23:47:42.542Z,13.30
2022-10-24T23:50:15.369Z,13.30
2022-10-24T23:52:56.709Z,13.30
2022-10-24T23:55:23.987Z,13.20
2022-10-24T23:57:52.077Z,13.20
